createdAt,value
2018-09-19T00:00:05.047Z,20.15
2018-09-19T00:01:09.154Z,20.20
2018-09-19T00:02:24.934Z,20.06
2018-09-19T00:03:24.635Z,20.18
2018-09-19T00:04:28.843Z,20.08
2018-09-19T00:05:41.862Z,20.12
2018-09-19T00:06:32.241Z,20.10
2018-09-19T00:07:53.260Z,19.97
2018-09-19T00:08:46.288Z,20.02
2018-09-19T00:09:47.636Z,19.97
2018-09-19T00:11:00.777Z,19.97
2018-09-19T00:12:20.415Z,19.97
2018-09-19T00:13:11.825Z,19.97
2018-09-19T00:14:21.975Z,19.83
2018-09-19T00:15:18.397Z,19.80
2018-09-19T00:16:36.436Z,19.86
2018-09-19T00:17:31.828Z,19.75
2018-09-19T00:18:34.604Z,19.83
2018-09-19T00:19:53.053Z,19.66
2018-09-19T00:20:49.485Z,19.69
2018-09-19T00:21:57.060Z,19.61
2018-09-19T00:23:00.961Z,19.66
2018-09-19T00:24:15.925Z,19.58
2018-09-19T00:25:18.284Z,19.51
2018-09-19T00:26:17.474Z,19.51
2018-09-19T00:27:29.359Z,19.50
2018-09-19T00:28:35.420Z,19.46
2018-09-19T00:29:43.200Z,19.46
2018-09-19T00:30:48.438Z,19.47
2018-09-19T00:31:41.373Z,19.47
2018-09-19T00:33:05.457Z,19.53
2018-09-19T00:33:58.080Z,19.54
2018-09-19T00:36:14.489Z,19.50
2018-09-19T00:37:16.767Z,19.51
2018-09-19T00:38:32.829Z,19.51
2018-09-19T00:39:26.488Z,19.51
2018-09-19T00:40:28.550Z,19.51
2018-09-19T00:41:37.361Z,19.43
2018-09-19T00:42:44.802Z,19.53
2018-09-19T00:44:06.920Z,19.46
2018-09-19T00:44:54.079Z,19.50
2018-09-19T00:46:11.089Z,19.46
2018-09-19T00:47:13.761Z,19.40
2018-09-19T00:48:10.096Z,19.38
2018-09-19T00:49:21.058Z,19.43
2018-09-19T00:50:35.699Z,19.39
2018-09-19T00:51:38.062Z,19.36
2018-09-19T00:52:31.826Z,19.36
2018-09-19T00:53:39.000Z,19.33
2018-09-19T00:54:49.452Z,19.38
2018-09-19T00:55:54.788Z,19.31
2018-09-19T00:56:56.031Z,19.36
2018-09-19T00:57:55.419Z,19.35
2018-09-19T00:59:13.455Z,19.36
2018-09-19T01:00:18.169Z,19.36
2018-09-19T01:01:17.256Z,19.40
2018-09-19T01:02:35.700Z,19.42
2018-09-19T01:03:38.783Z,19.40
2018-09-19T01:04:38.791Z,19.39
2018-09-19T01:05:41.156Z,19.38
2018-09-19T01:06:42.391Z,19.39
2018-09-19T01:07:48.544Z,19.43
2018-09-19T01:08:52.650Z,19.47
2018-09-19T01:10:02.384Z,19.47
2018-09-19T01:11:20.824Z,19.36
2018-09-19T01:12:06.804Z,19.43
2018-09-19T01:13:18.898Z,19.36
2018-09-19T01:14:37.850Z,19.38
2018-09-19T01:15:33.251Z,19.36
2018-09-19T01:16:30.494Z,19.38
2018-09-19T01:17:44.022Z,19.38
2018-09-19T01:19:07.173Z,19.38
2018-09-19T01:20:11.281Z,19.39
2018-09-19T01:21:04.951Z,19.38
2018-09-19T01:22:05.660Z,19.33
2018-09-19T01:23:13.262Z,19.25
2018-09-19T01:24:27.798Z,19.31
2018-09-19T01:25:36.001Z,19.24
2018-09-19T01:26:40.513Z,19.28
2018-09-19T01:27:42.364Z,19.28
2018-09-19T01:28:34.908Z,19.31
2018-09-19T01:29:42.079Z,19.20
2018-09-19T01:30:48.440Z,19.28
2018-09-19T01:32:15.175Z,19.25
2018-09-19T01:32:47.431Z,19.23
2018-09-19T01:34:06.285Z,19.15
2018-09-19T01:35:13.153Z,19.17
2018-09-19T01:36:31.696Z,19.13
2018-09-19T01:37:28.328Z,19.08
2018-09-19T01:38:31.098Z,19.06
2018-09-19T01:39:56.300Z,18.99
2018-09-19T01:40:44.226Z,18.95
2018-09-19T01:42:08.203Z,19.01
2018-09-19T01:43:09.741Z,18.98
2018-09-19T01:44:06.164Z,18.94
2018-09-19T01:44:58.288Z,18.90
2018-09-19T01:46:18.167Z,18.95
2018-09-19T01:47:02.915Z,18.95
2018-09-19T01:48:15.316Z,18.94
2018-09-19T01:49:24.553Z,18.91
2018-09-19T01:50:50.667Z,18.86
2018-09-19T01:51:42.797Z,18.94
2018-09-19T01:52:39.635Z,18.82
2018-09-19T01:53:51.821Z,18.79
2018-09-19T01:55:04.014Z,18.90
2018-09-19T01:56:30.240Z,18.91
2018-09-19T01:57:13.394Z,18.91
2018-09-19T01:58:26.468Z,18.84
2018-09-19T01:59:37.946Z,18.79
2018-09-19T02:00:20.753Z,18.79
2018-09-19T02:01:46.159Z,18.83
2018-09-19T02:02:58.144Z,18.82
2018-09-19T02:03:48.220Z,18.80
2018-09-19T02:04:37.475Z,18.80
2018-09-19T02:05:46.702Z,18.79
2018-09-19T02:06:50.907Z,18.77
2018-09-19T02:08:13.344Z,18.82
2018-09-19T02:09:08.744Z,18.76
2018-09-19T02:10:09.265Z,18.74
2018-09-19T02:11:20.755Z,18.77
2018-09-19T02:12:18.710Z,18.76
2018-09-19T02:13:15.746Z,18.80
2018-09-19T02:14:36.848Z,18.80
2018-09-19T02:15:35.428Z,18.76
2018-09-19T02:16:56.116Z,18.68
2018-09-19T02:17:33.190Z,18.64
2018-09-19T02:19:06.784Z,18.62
2018-09-19T02:20:02.902Z,18.67
2018-09-19T02:21:03.626Z,18.61
2018-09-19T02:22:09.493Z,18.61
2018-09-19T02:23:07.795Z,18.55
2018-09-19T02:24:10.314Z,18.58
2018-09-19T02:25:29.367Z,18.50
2018-09-19T02:26:32.041Z,18.54
2018-09-19T02:27:33.993Z,18.54
2018-09-19T02:28:44.072Z,18.55
2018-09-19T02:29:46.003Z,18.50
2018-09-19T02:30:53.173Z,18.46
2018-09-19T02:31:54.306Z,18.55
2018-09-19T02:33:06.300Z,18.49
2018-09-19T02:33:59.450Z,18.43
2018-09-19T02:35:12.356Z,18.47
2018-09-19T02:36:19.535Z,18.40
2018-09-19T02:37:27.938Z,18.44
2018-09-19T02:38:34.608Z,18.42
2018-09-19T02:39:35.226Z,18.40
2018-09-19T02:40:39.741Z,18.39
2018-09-19T02:41:45.282Z,18.39
2018-09-19T02:43:01.477Z,18.29
2018-09-19T02:43:52.881Z,18.39
2018-09-19T02:45:04.872Z,18.29
2018-09-19T02:46:14.001Z,18.28
2018-09-19T02:47:18.917Z,18.25
2018-09-19T02:48:17.178Z,18.29
2018-09-19T02:49:21.911Z,18.19
2018-09-19T02:50:17.403Z,18.13
2018-09-19T02:51:35.738Z,18.21
2018-09-19T02:52:36.160Z,18.13
2018-09-19T02:53:47.230Z,18.15
2018-09-19T02:54:43.553Z,18.17
2018-09-19T02:55:53.291Z,18.22
2018-09-19T02:56:56.266Z,18.15
2018-09-19T02:58:08.563Z,18.15
2018-09-19T02:59:20.869Z,18.06
2018-09-19T03:00:17.604Z,18.13
2018-09-19T03:01:26.102Z,18.15
2018-09-19T03:02:27.447Z,18.19
2018-09-19T03:03:38.404Z,18.15
2018-09-19T03:05:45.288Z,18.09
2018-09-19T03:06:55.230Z,18.22
2018-09-19T03:07:55.546Z,18.18
2018-09-19T03:09:06.206Z,18.12
2018-09-19T03:10:03.349Z,18.13
2018-09-19T03:11:12.470Z,18.13
2018-09-19T03:12:12.679Z,18.17
2018-09-19T03:13:21.367Z,18.06
2018-09-19T03:14:30.720Z,18.06
2018-09-19T03:16:36.884Z,17.99
2018-09-19T03:17:42.696Z,18.07
2018-09-19T03:18:48.497Z,18.04
2018-09-19T03:19:55.547Z,18.02
2018-09-19T03:20:59.242Z,18.00
2018-09-19T03:22:06.730Z,18.02
2018-09-19T03:23:07.043Z,18.09
2018-09-19T03:24:16.784Z,18.03
2018-09-19T03:25:23.661Z,17.91
2018-09-19T03:26:26.636Z,17.89
2018-09-19T03:27:32.683Z,17.87
2018-09-19T03:28:47.236Z,18.02
2018-09-19T03:29:47.343Z,17.99
2018-09-19T03:31:01.389Z,17.95
2018-09-19T03:31:56.985Z,17.92
2018-09-19T03:33:02.321Z,17.88
2018-09-19T03:34:08.473Z,17.89
2018-09-19T03:35:13.303Z,17.92
2018-09-19T03:36:20.370Z,17.89
2018-09-19T03:37:25.657Z,17.87
2018-09-19T03:38:39.334Z,17.82
2018-09-19T03:39:41.084Z,17.87
2018-09-19T03:40:44.578Z,17.82
2018-09-19T03:41:46.531Z,17.84
2018-09-19T03:42:52.584Z,17.79
2018-09-19T03:44:06.210Z,17.76
2018-09-19T03:44:58.848Z,17.74
2018-09-19T03:46:07.252Z,17.73
2018-09-19T03:47:11.972Z,17.70
2018-09-19T03:48:14.338Z,17.67
2018-09-19T03:49:22.336Z,17.70
2018-09-19T03:50:29.000Z,17.66
2018-09-19T03:51:35.159Z,17.66
2018-09-19T03:52:38.440Z,17.64
2018-09-19T03:53:58.421Z,17.64
2018-09-19T03:54:50.658Z,17.55
2018-09-19T03:56:01.919Z,17.50
2018-09-19T03:56:56.604Z,17.48
2018-09-19T03:58:24.895Z,17.64
2018-09-19T03:59:18.126Z,17.66
2018-09-19T04:00:16.088Z,17.50
2018-09-19T04:01:16.813Z,17.55
2018-09-19T04:02:26.959Z,17.66
2018-09-19T04:03:33.419Z,17.54
2018-09-19T04:04:49.718Z,17.62
2018-09-19T04:05:40.706Z,17.62
2018-09-19T04:06:51.469Z,17.47
2018-09-19T04:08:05.508Z,17.48
2018-09-19T04:08:59.577Z,17.53
2018-09-19T04:10:09.316Z,17.50
2018-09-19T04:11:14.861Z,17.48
2018-09-19T04:12:20.500Z,17.53
2018-09-19T04:13:25.317Z,17.50
2018-09-19T04:14:38.130Z,17.54
2018-09-19T04:15:46.534Z,17.50
2018-09-19T04:16:48.185Z,17.54
2018-09-19T04:17:45.557Z,17.46
2018-09-19T04:18:53.420Z,17.48
2018-09-19T04:19:55.584Z,17.53
2018-09-19T04:21:04.094Z,17.47
2018-09-19T04:22:11.271Z,17.48
2018-09-19T04:23:20.716Z,17.55
2018-09-19T04:24:19.788Z,17.54
2018-09-19T04:25:26.767Z,17.46
2018-09-19T04:26:37.010Z,17.46
2018-09-19T04:27:33.757Z,17.50
2018-09-19T04:28:37.843Z,17.51
2018-09-19T04:29:49.738Z,17.51
2018-09-19T04:30:48.512Z,17.48
2018-09-19T04:31:53.742Z,17.51
2018-09-19T04:33:04.404Z,17.46
2018-09-19T04:34:17.724Z,17.47
2018-09-19T04:35:13.844Z,17.47
2018-09-19T04:36:27.368Z,17.41
2018-09-19T04:37:24.609Z,17.50
2018-09-19T04:38:34.963Z,17.48
2018-09-19T04:39:50.128Z,17.41
2018-09-19T04:40:41.841Z,17.47
2018-09-19T04:41:47.486Z,17.40
2018-09-19T04:42:51.205Z,17.48
2018-09-19T04:43:58.763Z,17.40
2018-09-19T04:44:58.582Z,17.36
2018-09-19T04:46:12.604Z,17.36
2018-09-19T04:47:09.031Z,17.36
2018-09-19T04:48:27.777Z,17.38
2018-09-19T04:49:25.638Z,17.40
2018-09-19T04:50:36.707Z,17.36
2018-09-19T04:51:50.947Z,17.38
2018-09-19T04:52:35.594Z,17.43
2018-09-19T04:53:41.955Z,17.33
2018-09-19T04:55:04.500Z,17.43
2018-09-19T04:58:07.385Z,17.46
2018-09-19T04:59:18.963Z,17.40
2018-09-19T05:00:16.514Z,17.35
2018-09-19T05:01:32.904Z,17.18
2018-09-19T05:02:31.378Z,17.30
2018-09-19T05:03:46.547Z,17.26
2018-09-19T05:04:49.013Z,17.20
2018-09-19T05:05:56.800Z,17.17
2018-09-19T05:06:58.342Z,17.08
2018-09-19T05:07:59.683Z,17.17
2018-09-19T05:09:08.197Z,17.08
2018-09-19T05:10:06.251Z,17.15
2018-09-19T05:11:14.175Z,17.13
2018-09-19T05:12:24.600Z,17.11
2018-09-19T05:13:27.681Z,17.03
2018-09-19T05:14:33.325Z,17.06
2018-09-19T05:15:32.615Z,17.13
2018-09-19T05:16:37.956Z,17.10
2018-09-19T05:17:46.871Z,17.14
2018-09-19T05:18:55.274Z,17.06
2018-09-19T05:20:01.427Z,17.10
2018-09-19T05:21:06.353Z,17.14
2018-09-19T05:22:13.530Z,17.13
2018-09-19T05:23:16.209Z,17.13
2018-09-19T05:24:26.456Z,17.20
2018-09-19T05:25:31.490Z,17.14
2018-09-19T05:26:33.637Z,17.15
2018-09-19T05:27:34.465Z,17.15
2018-09-19T05:28:54.137Z,17.13
2018-09-19T05:29:49.332Z,17.13
2018-09-19T05:31:04.710Z,17.17
2018-09-19T05:31:58.568Z,17.25
2018-09-19T05:33:07.075Z,17.23
2018-09-19T05:34:10.153Z,17.22
2018-09-19T05:35:22.769Z,17.23
2018-09-19T05:36:18.677Z,17.29
2018-09-19T05:37:27.283Z,17.22
2018-09-19T05:38:33.745Z,17.18
2018-09-19T05:39:45.121Z,17.29
2018-09-19T05:40:44.821Z,17.25
2018-09-19T05:41:48.825Z,17.25
2018-09-19T05:42:59.279Z,17.33
2018-09-19T05:44:04.410Z,17.22
2018-09-19T05:45:00.945Z,17.25
2018-09-19T05:46:15.429Z,17.29
2018-09-19T05:47:20.412Z,17.28
2018-09-19T05:48:24.619Z,17.28
2018-09-19T05:49:31.497Z,17.30
2018-09-19T05:50:25.153Z,17.30
2018-09-19T05:51:49.127Z,17.20
2018-09-19T05:53:53.541Z,17.33
2018-09-19T05:54:56.319Z,17.35
2018-09-19T05:56:07.278Z,17.38
2018-09-19T05:57:19.270Z,17.36
2018-09-19T05:58:07.097Z,17.41
2018-09-19T05:59:14.369Z,17.41
2018-09-19T06:00:29.226Z,17.36
2018-09-19T06:01:35.483Z,17.41
2018-09-19T06:02:39.809Z,17.38
2018-09-19T06:03:45.334Z,17.33
2018-09-19T06:04:45.383Z,17.41
2018-09-19T06:05:44.429Z,17.41
2018-09-19T06:07:03.596Z,17.50
2018-09-19T06:08:04.542Z,17.47
2018-09-19T06:09:03.399Z,17.50
2018-09-19T06:10:19.802Z,17.48
2018-09-19T06:11:20.628Z,17.50
2018-09-19T06:12:25.237Z,17.44
2018-09-19T06:13:29.244Z,17.53
2018-09-19T06:14:39.080Z,17.55
2018-09-19T06:16:50.565Z,17.55
2018-09-19T06:17:45.761Z,17.55
2018-09-19T06:19:03.694Z,17.63
2018-09-19T06:20:11.484Z,17.63
2018-09-19T06:21:09.858Z,17.64
2018-09-19T06:22:19.284Z,17.63
2018-09-19T06:24:27.700Z,17.64
2018-09-19T06:25:28.937Z,17.66
2018-09-19T06:26:34.474Z,17.71
2018-09-19T06:27:37.040Z,17.63
2018-09-19T06:28:49.133Z,17.66
2018-09-19T06:29:50.782Z,17.69
2018-09-19T06:31:03.185Z,17.70
2018-09-19T06:32:06.260Z,17.74
2018-09-19T06:33:16.855Z,17.66
2018-09-19T06:34:08.628Z,17.70
2018-09-19T06:35:16.634Z,17.81
2018-09-19T06:36:25.347Z,17.79
2018-09-19T06:37:25.150Z,17.84
2018-09-19T06:38:30.693Z,17.87
2018-09-19T06:39:44.528Z,17.88
2018-09-19T06:40:53.540Z,17.87
2018-09-19T06:41:54.478Z,17.94
2018-09-19T06:42:55.819Z,17.99
2018-09-19T06:44:09.244Z,17.99
2018-09-19T06:45:09.250Z,18.02
2018-09-19T06:46:20.321Z,18.06
2018-09-19T06:47:22.070Z,18.06
2018-09-19T06:48:26.902Z,18.02
2018-09-19T06:49:41.138Z,18.12
2018-09-19T06:50:41.351Z,18.10
2018-09-19T06:51:50.331Z,18.17
2018-09-19T06:52:39.628Z,18.15
2018-09-19T06:53:49.160Z,18.33
2018-09-19T06:55:12.111Z,18.33
2018-09-19T06:56:13.654Z,18.42
2018-09-19T06:58:27.600Z,18.46
2018-09-19T06:59:32.981Z,18.52
2018-09-19T07:00:36.220Z,18.57
2018-09-19T07:01:31.415Z,18.54
2018-09-19T07:02:41.156Z,18.67
2018-09-19T07:03:45.261Z,18.65
2018-09-19T07:04:49.366Z,18.72
2018-09-19T07:05:51.063Z,18.62
2018-09-19T07:07:06.585Z,18.72
2018-09-19T07:08:30.253Z,18.76
2018-09-19T07:09:23.209Z,18.80
2018-09-19T07:10:26.683Z,18.90
2018-09-19T07:11:32.528Z,18.90
2018-09-19T07:12:33.764Z,18.95
2018-09-19T07:13:34.796Z,18.99
2018-09-19T07:15:43.013Z,19.08
2018-09-19T07:16:55.204Z,19.11
2018-09-19T07:17:55.625Z,19.17
2018-09-19T07:18:59.891Z,19.17
2018-09-19T07:20:04.142Z,19.23
2018-09-19T07:21:29.651Z,19.29
2018-09-19T07:22:36.727Z,19.28
2018-09-19T07:23:30.896Z,19.29
2018-09-19T07:24:27.934Z,19.38
2018-09-19T07:25:41.870Z,19.42
2018-09-19T07:26:52.127Z,19.35
2018-09-19T07:27:49.160Z,19.43
2018-09-19T07:29:25.727Z,19.47
2018-09-19T07:30:11.399Z,19.53
2018-09-19T07:31:27.175Z,19.66
2018-09-19T07:32:14.797Z,19.65
2018-09-19T07:33:25.967Z,19.79
2018-09-19T07:34:37.969Z,19.78
2018-09-19T07:35:49.546Z,19.88
2018-09-19T07:36:45.960Z,19.97
2018-09-19T07:37:47.132Z,20.02
2018-09-19T07:39:10.559Z,20.05
2018-09-19T07:39:58.274Z,20.10
2018-09-19T07:41:05.042Z,20.15
2018-09-19T07:42:20.544Z,20.23
2018-09-19T07:43:20.727Z,20.24
2018-09-19T07:44:25.245Z,20.33
2018-09-19T07:45:16.241Z,20.41
2018-09-19T07:46:24.598Z,20.46
2018-09-19T07:47:21.891Z,20.53
2018-09-19T07:48:39.924Z,20.51
2018-09-19T07:49:54.061Z,20.61
2018-09-19T07:50:39.226Z,20.66
2018-09-19T07:51:41.176Z,20.71
2018-09-19T07:52:56.236Z,20.77
2018-09-19T07:54:02.184Z,20.80
2018-09-19T07:55:06.308Z,20.90
2018-09-19T07:56:20.020Z,21.01
2018-09-19T07:57:12.551Z,21.13
2018-09-19T07:58:29.561Z,21.14
2018-09-19T07:59:27.726Z,21.23
2018-09-19T08:00:38.454Z,21.35
2018-09-19T08:01:55.398Z,21.36
2018-09-19T08:02:51.715Z,21.30
2018-09-19T08:03:55.517Z,21.36
2018-09-19T08:04:59.005Z,21.48
2018-09-19T08:06:02.392Z,21.60
2018-09-19T08:07:05.169Z,21.59
2018-09-19T08:08:11.013Z,21.64
2018-09-19T08:09:27.408Z,21.64
2018-09-19T08:10:21.273Z,21.78
2018-09-19T08:11:28.861Z,21.88
2018-09-19T08:12:38.194Z,21.90
2018-09-19T08:13:40.451Z,21.99
2018-09-19T08:14:40.356Z,22.10
2018-09-19T08:15:52.053Z,22.13
2018-09-19T08:16:56.789Z,22.09
2018-09-19T08:19:02.101Z,22.32
2018-09-19T08:20:26.587Z,22.37
2018-09-19T08:21:16.154Z,22.37
2018-09-19T08:22:25.229Z,22.54
2018-09-19T08:23:27.943Z,22.54
2018-09-19T08:24:38.608Z,22.60
2018-09-19T08:25:35.948Z,22.68
2018-09-19T08:26:45.786Z,22.71
2018-09-19T08:27:48.558Z,22.87
2018-09-19T08:28:59.837Z,22.82
2018-09-19T08:30:03.631Z,22.86
2018-09-19T08:30:58.731Z,22.92
2018-09-19T08:32:26.587Z,23.05
2018-09-19T08:33:19.429Z,23.07
2018-09-19T08:34:23.531Z,23.20
2018-09-19T08:35:40.846Z,23.23
2018-09-19T08:36:31.431Z,23.32
2018-09-19T08:38:54.164Z,23.35
2018-09-19T08:40:02.692Z,23.40
2018-09-19T08:40:57.785Z,23.55
2018-09-19T08:42:08.240Z,23.43
2018-09-19T08:43:23.615Z,23.58
2018-09-19T08:44:19.014Z,23.60
2018-09-19T08:45:31.411Z,23.64
2018-09-19T08:46:24.673Z,23.71
2018-09-19T08:48:02.459Z,23.80
2018-09-19T08:48:44.854Z,23.77
2018-09-19T08:49:54.183Z,23.83
2018-09-19T08:50:48.342Z,23.94
2018-09-19T08:51:58.398Z,23.92
2018-09-19T08:53:12.642Z,24.02
2018-09-19T08:54:00.169Z,24.13
2018-09-19T08:55:21.670Z,24.05
2018-09-19T08:56:12.770Z,24.20
2018-09-19T08:57:31.008Z,24.24
2018-09-19T08:58:27.639Z,24.29
2018-09-19T08:59:49.569Z,24.31
2018-09-19T09:00:54.689Z,24.31
2018-09-19T09:01:56.237Z,24.35
2018-09-19T09:02:53.891Z,24.44
2018-09-19T09:04:26.874Z,24.34
2018-09-19T09:06:24.739Z,24.34
2018-09-19T09:07:22.909Z,24.38
2018-09-19T09:09:00.703Z,24.50
2018-09-19T09:09:53.237Z,24.52
2018-09-19T09:10:43.723Z,24.61
2018-09-19T09:13:47.647Z,24.64
2018-09-19T09:15:26.464Z,24.73
2018-09-19T09:16:52.383Z,24.80
2018-09-19T09:18:29.360Z,24.85
2018-09-19T09:19:17.489Z,24.94
2018-09-19T09:20:43.102Z,24.83
2018-09-19T09:21:34.709Z,24.95
2018-09-19T09:22:33.283Z,24.97
2018-09-19T09:23:35.956Z,25.00
2018-09-19T09:24:35.144Z,25.12
2018-09-19T09:27:13.268Z,25.17
2018-09-19T09:28:36.206Z,25.30
2018-09-19T09:29:33.447Z,25.31
2018-09-19T09:30:18.709Z,25.43
2018-09-19T09:31:43.298Z,25.47
2018-09-19T09:33:30.620Z,25.43
2018-09-19T09:34:47.417Z,25.54
2018-09-19T09:35:39.955Z,25.64
2018-09-19T09:36:48.917Z,25.64
2018-09-19T09:37:47.697Z,25.71
2018-09-19T09:39:15.732Z,25.72
2018-09-19T09:40:08.147Z,25.69
2018-09-19T09:41:13.583Z,25.80
2018-09-19T09:42:18.408Z,25.86
2018-09-19T09:43:18.326Z,25.87
2018-09-19T09:44:23.339Z,25.91
2018-09-19T09:46:42.809Z,26.04
2018-09-19T09:47:34.325Z,26.09
2018-09-19T09:48:39.143Z,26.12
2018-09-19T09:49:47.856Z,26.08
2018-09-19T09:50:56.260Z,26.21
2018-09-19T09:52:17.693Z,26.24
2018-09-19T09:53:08.989Z,26.22
2018-09-19T09:54:08.166Z,26.29
2018-09-19T09:55:09.630Z,26.35
2018-09-19T09:56:09.924Z,26.50
2018-09-19T09:57:31.645Z,26.46
2018-09-19T09:58:37.905Z,26.58
2018-09-19T09:59:41.196Z,26.65
2018-09-19T10:00:48.975Z,26.68
2018-09-19T10:01:54.102Z,26.68
2018-09-19T10:02:57.092Z,26.76
2018-09-19T10:03:59.238Z,26.68
2018-09-19T10:05:12.156Z,26.83
2018-09-19T10:06:11.750Z,26.80
2018-09-19T10:07:21.490Z,26.81
2018-09-19T10:08:24.057Z,26.83
2018-09-19T10:09:28.060Z,26.83
2018-09-19T10:10:42.199Z,26.81
2018-09-19T10:11:41.490Z,26.89
2018-09-19T10:12:47.133Z,26.94
2018-09-19T10:13:52.678Z,26.98
2018-09-19T10:14:35.170Z,27.02
2018-09-19T10:16:00.472Z,27.05
2018-09-19T10:17:15.750Z,27.17
2018-09-19T10:18:25.888Z,27.17
2018-09-19T10:19:16.179Z,27.13
2018-09-19T10:20:39.429Z,27.21
2018-09-19T10:21:45.273Z,27.21
2018-09-19T10:22:31.149Z,27.36
2018-09-19T10:23:39.045Z,27.43
2018-09-19T10:24:48.786Z,27.47
2018-09-19T10:25:47.156Z,27.50
2018-09-19T10:26:46.549Z,27.57
2018-09-19T10:27:54.349Z,27.59
2018-09-19T10:29:08.786Z,27.69
2018-09-19T10:30:05.927Z,27.73
2018-09-19T10:31:19.759Z,27.71
2018-09-19T10:32:32.571Z,27.71
2018-09-19T10:33:27.459Z,27.70
2018-09-19T10:34:37.604Z,27.80
2018-09-19T10:35:33.470Z,27.82
2018-09-19T10:36:41.206Z,27.94
2018-09-19T10:37:47.872Z,27.89
2018-09-19T10:38:41.837Z,28.04
2018-09-19T10:40:01.511Z,28.06
2018-09-19T10:41:26.708Z,28.11
2018-09-19T10:42:07.977Z,28.14
2018-09-19T10:43:02.357Z,27.98
2018-09-19T10:44:23.974Z,28.09
2018-09-19T10:45:34.634Z,27.94
2018-09-19T10:47:41.102Z,27.96
2018-09-19T10:48:53.402Z,27.92
2018-09-19T10:49:49.518Z,27.84
2018-09-19T10:50:52.189Z,27.88
2018-09-19T10:51:56.200Z,27.82
2018-09-19T10:53:03.165Z,27.84
2018-09-19T10:53:59.796Z,27.99
2018-09-19T10:55:18.337Z,28.03
2018-09-19T10:56:22.237Z,28.14
2018-09-19T10:57:31.462Z,28.19
2018-09-19T10:59:36.191Z,28.13
2018-09-19T11:00:40.298Z,28.11
2018-09-19T11:01:51.978Z,28.22
2018-09-19T11:02:55.575Z,28.25
2018-09-19T11:04:01.109Z,28.16
2018-09-19T11:04:57.942Z,28.22
2018-09-19T11:06:16.384Z,28.25
2018-09-19T11:07:20.079Z,28.31
2018-09-19T11:08:15.479Z,28.36
2018-09-19T11:09:30.334Z,28.58
2018-09-19T11:10:32.084Z,28.54
2018-09-19T11:11:56.055Z,28.65
2018-09-19T11:12:42.048Z,28.66
2018-09-19T11:14:02.217Z,28.72
2018-09-19T11:15:33.564Z,28.84
2018-09-19T11:15:55.375Z,28.82
2018-09-19T11:17:23.442Z,28.80
2018-09-19T11:18:07.478Z,28.88
2018-09-19T11:19:33.498Z,28.90
2018-09-19T11:20:23.573Z,29.03
2018-09-19T11:21:36.074Z,29.11
2018-09-19T11:22:44.490Z,29.11
2018-09-19T11:23:40.290Z,29.13
2018-09-19T11:24:46.546Z,29.01
2018-09-19T11:25:48.503Z,29.08
2018-09-19T11:27:08.686Z,29.22
2018-09-19T11:28:06.645Z,29.22
2018-09-19T11:29:09.010Z,29.26
2018-09-19T11:30:11.376Z,29.33
2018-09-19T11:31:19.166Z,29.33
2018-09-19T11:32:25.217Z,29.28
2018-09-19T11:33:25.225Z,29.31
2018-09-19T11:34:51.760Z,29.20
2018-09-19T11:35:41.582Z,29.26
2018-09-19T11:36:53.417Z,29.18
2018-09-19T11:37:58.134Z,29.15
2018-09-19T11:39:06.437Z,29.04
2018-09-19T11:40:00.302Z,28.96
2018-09-19T11:41:10.346Z,28.95
2018-09-19T11:42:19.572Z,28.87
2018-09-19T11:43:35.547Z,28.84
2018-09-19T11:44:16.835Z,28.78
2018-09-19T11:45:31.078Z,28.75
2018-09-19T11:46:31.179Z,28.68
2018-09-19T11:48:45.644Z,28.53
2018-09-19T11:49:51.586Z,28.41
2018-09-19T11:50:55.909Z,28.31
2018-09-19T11:53:10.046Z,28.25
2018-09-19T11:54:11.897Z,28.17
2018-09-19T11:56:28.209Z,28.14
2018-09-19T11:57:24.523Z,28.14
2018-09-19T11:58:39.789Z,28.16
2018-09-19T11:59:31.721Z,28.13
2018-09-19T12:00:41.753Z,28.16
2018-09-19T12:02:49.961Z,28.35
2018-09-19T12:05:12.304Z,28.40
2018-09-19T12:06:41.501Z,28.50
2018-09-19T12:07:28.717Z,28.47
2018-09-19T12:08:24.213Z,28.69
2018-09-19T12:09:26.783Z,28.65
2018-09-19T12:10:48.809Z,28.84
2018-09-19T12:11:45.743Z,28.95
2018-09-19T12:12:46.064Z,29.10
2018-09-19T12:14:10.238Z,29.11
2018-09-19T12:15:03.590Z,29.29
2018-09-19T12:17:07.413Z,29.28
2018-09-19T12:18:20.923Z,29.38
2018-09-19T12:19:18.379Z,29.52
2018-09-19T12:20:31.804Z,29.62
2018-09-19T12:21:37.847Z,29.70
2018-09-19T12:22:36.121Z,29.84
2018-09-19T12:24:58.662Z,29.86
2018-09-19T12:25:52.640Z,29.96
2018-09-19T12:26:56.016Z,30.16
2018-09-19T12:28:12.512Z,30.29
2018-09-19T12:29:17.246Z,30.29
2018-09-19T12:30:16.729Z,30.43
2018-09-19T12:32:23.813Z,30.47
2018-09-19T12:33:35.395Z,30.52
2018-09-19T12:35:54.973Z,30.67
2018-09-19T12:36:55.701Z,30.61
2018-09-19T12:37:57.243Z,30.72
2018-09-19T12:39:02.577Z,30.80
2018-09-19T12:40:08.011Z,30.78
2018-09-19T12:41:09.978Z,31.01
2018-09-19T12:42:13.356Z,30.99
2018-09-19T12:44:26.581Z,31.26
2018-09-19T12:45:33.452Z,31.26
2018-09-19T12:47:41.868Z,31.17
2018-09-19T12:48:54.676Z,31.24
2018-09-19T12:50:01.250Z,31.21
2018-09-19T12:51:03.603Z,31.24
2018-09-19T12:52:09.863Z,31.28
2018-09-19T12:53:26.181Z,31.33
2018-09-19T12:54:20.536Z,31.33
2018-09-19T12:56:35.805Z,31.35
2018-09-19T12:58:38.179Z,31.46
2018-09-19T12:59:41.262Z,31.60
2018-09-19T13:00:57.241Z,31.58
2018-09-19T13:01:58.790Z,31.68
2018-09-19T13:03:02.927Z,31.82
2018-09-19T13:04:17.444Z,31.84
2018-09-19T13:06:17.359Z,31.88
2018-09-19T13:07:32.521Z,31.79
2018-09-19T13:08:31.654Z,31.87
2018-09-19T13:09:44.934Z,31.77
2018-09-19T13:10:45.155Z,31.82
2018-09-19T13:11:52.831Z,31.84
2018-09-19T13:13:06.461Z,31.93
2018-09-19T13:14:01.553Z,32.07
2018-09-19T13:15:12.007Z,32.36
2018-09-19T13:16:07.203Z,32.64
2018-09-19T13:17:22.266Z,32.99
2018-09-19T13:18:26.683Z,33.42
2018-09-19T13:19:26.281Z,34.17
2018-09-19T13:20:35.913Z,35.37
2018-09-19T13:21:46.481Z,36.80
2018-09-19T13:22:57.334Z,38.05
2018-09-19T13:24:49.064Z,40.47
2018-09-19T13:26:10.980Z,40.88
2018-09-19T13:27:15.111Z,41.90
2018-09-19T13:28:16.225Z,42.53
2018-09-19T13:29:20.841Z,43.18
2018-09-19T13:31:26.282Z,43.27
2018-09-19T13:32:33.564Z,41.93
2018-09-19T13:33:25.789Z,40.76
2018-09-19T13:34:56.826Z,39.64
2018-09-19T13:35:38.617Z,38.80
2018-09-19T13:38:39.560Z,40.00
2018-09-19T13:39:12.335Z,41.20
2018-09-19T13:40:22.884Z,42.05
2018-09-19T13:41:25.557Z,41.00
2018-09-19T13:42:36.223Z,40.46
2018-09-19T13:43:35.918Z,41.49
2018-09-19T13:45:43.513Z,40.05
2018-09-19T13:46:56.948Z,40.71
2018-09-19T13:48:07.090Z,40.71
2018-09-19T13:48:55.621Z,40.27
2018-09-19T13:50:01.362Z,39.84
2018-09-19T13:51:03.215Z,39.37
2018-09-19T13:52:07.626Z,38.73
2018-09-19T13:54:25.565Z,37.71
2018-09-19T13:55:41.140Z,37.20
2018-09-19T13:56:49.444Z,36.77
2018-09-19T13:57:49.349Z,36.27
2018-09-19T13:58:48.353Z,35.88
2018-09-19T13:59:51.930Z,35.45
2018-09-19T14:01:09.549Z,35.17
2018-09-19T14:02:01.877Z,34.92
2018-09-19T14:03:13.969Z,34.69
2018-09-19T14:04:09.117Z,34.34
2018-09-19T14:05:29.553Z,34.07
2018-09-19T14:06:18.708Z,33.85
2018-09-19T14:07:25.474Z,33.61
2018-09-19T14:09:34.304Z,33.10
2018-09-19T14:10:41.785Z,32.91
2018-09-19T14:11:51.624Z,32.73
2018-09-19T14:13:03.514Z,32.61
2018-09-19T14:14:13.658Z,32.44
2018-09-19T14:15:08.444Z,32.36
2018-09-19T14:17:19.009Z,31.98
2018-09-19T14:19:23.631Z,31.57
2018-09-19T14:20:35.417Z,31.57
2018-09-19T14:21:42.800Z,31.48
2018-09-19T14:22:45.174Z,31.26
2018-09-19T14:24:04.221Z,31.24
2018-09-19T14:24:52.249Z,31.17
2018-09-19T14:26:05.678Z,31.05
2018-09-19T14:27:05.780Z,31.06
2018-09-19T14:28:15.226Z,30.89
2018-09-19T14:29:16.041Z,30.83
2018-09-19T14:31:28.243Z,30.65
2018-09-19T14:32:31.949Z,30.50
2018-09-19T14:33:42.088Z,30.46
2018-09-19T14:34:58.584Z,30.43
2018-09-19T14:35:57.432Z,30.27
2018-09-19T14:37:00.136Z,30.24
2018-09-19T14:39:23.913Z,30.02
2018-09-19T14:40:12.040Z,29.89
2018-09-19T14:41:25.363Z,29.93
2018-09-19T14:42:22.418Z,29.84
2018-09-19T14:43:32.447Z,29.74
2018-09-19T14:44:47.418Z,29.72
2018-09-19T14:45:43.525Z,29.71
2018-09-19T14:46:53.363Z,29.60
2018-09-19T14:47:56.546Z,29.59
2018-09-19T14:49:14.681Z,29.45
2018-09-19T14:51:11.521Z,29.41
2018-09-19T14:52:13.885Z,29.40
2018-09-19T14:54:25.679Z,29.22